Pagrindinis puslapis
METAR-TAF:

METAR-TAF

Oro uostai :

Cruzeiro do Sul, Akrė, Brazilija

platuma: 07-38S, ilguma: 072-40W, Aukštis: 170 m

Dabartinis oras

Ataskaita buvo paskelbta 36 minutes, ne 20:00 UTC
Vėjas 5 kt iš Šiaurės
Temperatūra 28°C
Drėgmė 84%
Slėgis 1009 hPa
Matomumas 10 km arba daugiau
Išsisklaidę debesys ne aukštis 3000 ft
Išsisklaidę debesys ne aukštis 10000 ft

METAR: SBCZ 152000Z 35005KT 9999 SCT030 SCT100 28/25 Q1009

Laikas: 15:36 (20:36 UTC)


TAF: trūkstamas

Orai ataskaitas ir orų prognozės (METAR, TAF).

turimą stotys yra geltonos ir raudonos taškus žemėlapyje.

Perkelti pele per norėdami pamatyti stoties vardą.

Tada spustelėkite, norėdami matyti oro stebėjimo ir prognozės.

Norėdami pakeisti žemėlapį: spustelėkite ant žalios mygtukų su juodo kryžiaus žemyn,; žalią mygtuką su brūkšneliu, jei norite nutolinti; arba žalių rodyklių gretimoms žemėlapius.


METAR-TAF: